createdAt,value
2019-05-21T00:01:00.371Z,99.40
2019-05-21T00:03:29.963Z,99.20
2019-05-21T00:05:59.301Z,99.10
2019-05-21T00:08:28.897Z,98.90
2019-05-21T00:10:58.170Z,99.00
2019-05-21T00:13:27.771Z,99.10
2019-05-21T00:15:57.071Z,99.10
2019-05-21T00:18:26.626Z,99.10
2019-05-21T00:20:55.974Z,99.20
2019-05-21T00:23:25.576Z,99.30
2019-05-21T00:25:55.098Z,99.40
2019-05-21T00:28:41.180Z,99.20
2019-05-21T00:31:46.255Z,99.30
2019-05-21T00:34:51.243Z,99.30
2019-05-21T00:37:56.391Z,99.30
2019-05-21T00:41:01.380Z,99.40
2019-05-21T00:43:46.560Z,99.20
2019-05-21T00:46:15.934Z,99.10
2019-05-21T00:48:45.577Z,99.10
2019-05-21T00:51:15.213Z,99.20
2019-05-21T00:53:48.776Z,99.30
2019-05-21T00:56:18.337Z,99.30
2019-05-21T00:58:48.002Z,99.30
2019-05-21T01:01:17.518Z,99.10
2019-05-21T01:03:46.885Z,99.10
2019-05-21T01:06:16.265Z,99.20
2019-05-21T01:08:45.686Z,99.20
2019-05-21T01:11:15.055Z,99.10
2019-05-21T01:13:44.620Z,99.30
2019-05-21T01:16:13.944Z,99.40
2019-05-21T01:18:43.213Z,99.30
2019-05-21T01:21:12.795Z,99.30
2019-05-21T01:23:42.092Z,99.40
2019-05-21T01:26:11.654Z,99.30
2019-05-21T01:28:41.006Z,99.30
2019-05-21T01:31:10.292Z,99.10
2019-05-21T01:33:39.888Z,99.20
2019-05-21T01:36:09.168Z,99.00
2019-05-21T01:38:38.614Z,99.20
2019-05-21T01:41:07.947Z,99.50
2019-05-21T01:43:37.318Z,99.50
2019-05-21T01:46:06.902Z,99.30
2019-05-21T01:48:36.207Z,99.20
2019-05-21T01:51:05.479Z,99.40
2019-05-21T01:53:34.786Z,99.40
2019-05-21T01:56:04.150Z,99.60
2019-05-21T01:58:33.431Z,99.60
2019-05-21T02:01:02.801Z,99.90
2019-05-21T02:03:32.322Z,99.70
2019-05-21T02:06:01.718Z,99.80
2019-05-21T02:08:31.295Z,99.90
2019-05-21T02:11:00.883Z,99.90
2019-05-21T02:13:30.497Z,99.90
2019-05-21T02:16:00.057Z,99.90
2019-05-21T02:18:29.616Z,99.90
2019-05-21T02:20:59.189Z,99.90
2019-05-21T02:23:28.722Z,99.90
2019-05-21T02:25:58.331Z,99.90
2019-05-21T02:28:27.874Z,99.90
2019-05-21T02:30:57.514Z,99.90
2019-05-21T02:33:27.053Z,99.90
2019-05-21T02:35:56.400Z,99.90
2019-05-21T02:38:25.721Z,99.90
2019-05-21T02:40:55.126Z,99.90
2019-05-21T02:43:24.696Z,99.90
2019-05-21T02:45:53.985Z,99.90
2019-05-21T02:48:23.625Z,99.90
2019-05-21T02:50:53.020Z,99.90
2019-05-21T02:53:22.384Z,99.90
2019-05-21T02:55:51.674Z,99.80
2019-05-21T02:58:21.257Z,99.90
2019-05-21T03:01:12.227Z,99.90
2019-05-21T03:03:41.784Z,99.90
2019-05-21T03:06:14.269Z,99.90
2019-05-21T03:08:42.158Z,99.90
2019-05-21T03:11:11.576Z,99.90
2019-05-21T03:13:40.874Z,99.90
2019-05-21T03:16:10.248Z,99.90
2019-05-21T03:18:39.873Z,99.90
2019-05-21T03:21:09.299Z,99.90
2019-05-21T03:23:38.584Z,99.90
2019-05-21T03:26:07.952Z,99.90
2019-05-21T03:28:37.804Z,99.90
2019-05-21T03:31:07.089Z,99.90
2019-05-21T03:33:36.488Z,99.90
2019-05-21T03:36:05.793Z,99.90
2019-05-21T03:38:35.094Z,99.90
2019-05-21T03:41:04.388Z,99.90
2019-05-21T03:43:34.000Z,99.90
2019-05-21T03:46:03.564Z,99.90
2019-05-21T03:48:32.853Z,99.90
2019-05-21T03:51:02.262Z,99.90
2019-05-21T03:53:31.870Z,99.90
2019-05-21T03:56:01.175Z,99.90
2019-05-21T03:58:30.478Z,99.90
2019-05-21T04:00:59.785Z,99.90
2019-05-21T04:03:29.066Z,99.90
2019-05-21T04:05:58.386Z,99.90
2019-05-21T04:08:27.666Z,99.90
2019-05-21T04:10:56.968Z,99.90
2019-05-21T04:13:26.255Z,99.90
2019-05-21T04:16:17.582Z,99.90
2019-05-21T04:19:05.797Z,99.90
2019-05-21T04:21:35.191Z,99.90
2019-05-21T04:24:08.415Z,99.90
2019-05-21T04:26:35.772Z,99.90
2019-05-21T04:29:05.124Z,99.90
2019-05-21T04:31:35.030Z,99.90
2019-05-21T04:34:04.556Z,99.90
2019-05-21T04:36:33.875Z,99.90
2019-05-21T04:39:04.682Z,99.90
2019-05-21T04:41:33.960Z,99.90
2019-05-21T04:44:03.261Z,99.90
2019-05-21T04:46:32.637Z,99.90
2019-05-21T04:49:01.939Z,99.90
2019-05-21T04:51:31.227Z,99.90
2019-05-21T04:54:01.197Z,99.90
2019-05-21T04:56:30.740Z,99.90
2019-05-21T04:59:00.136Z,99.90
2019-05-21T05:01:29.495Z,99.90
2019-05-21T05:03:59.059Z,99.90
2019-05-21T05:06:28.363Z,99.90
2019-05-21T05:08:57.730Z,99.90
2019-05-21T05:11:27.048Z,99.90
2019-05-21T05:13:56.594Z,99.90
2019-05-21T05:16:26.151Z,99.90
2019-05-21T05:18:55.522Z,99.90
2019-05-21T05:21:24.823Z,99.90
2019-05-21T05:23:54.150Z,99.90
2019-05-21T05:26:23.813Z,99.90
2019-05-21T05:28:53.711Z,99.90
2019-05-21T05:31:22.998Z,99.90
2019-05-21T05:33:52.330Z,99.90
2019-05-21T05:36:21.624Z,99.90
2019-05-21T05:38:51.199Z,99.90
2019-05-21T05:41:20.867Z,99.90
2019-05-21T05:43:50.187Z,99.90
2019-05-21T05:46:19.525Z,99.90
2019-05-21T05:48:57.404Z,99.90
2019-05-21T05:51:26.934Z,99.90
2019-05-21T05:53:59.269Z,99.90
2019-05-21T05:56:29.800Z,99.90
2019-05-21T05:58:59.117Z,99.90
2019-05-21T06:01:29.996Z,99.90
2019-05-21T06:03:59.567Z,99.90
2019-05-21T06:06:28.889Z,99.90
2019-05-21T06:08:58.163Z,99.90
2019-05-21T06:11:27.445Z,99.90
2019-05-21T06:13:57.039Z,99.90
2019-05-21T06:16:27.549Z,99.90
2019-05-21T06:18:57.224Z,99.90
2019-05-21T06:21:26.893Z,99.90
2019-05-21T06:23:56.206Z,99.90
2019-05-21T06:26:25.479Z,99.90
2019-05-21T06:28:54.899Z,99.90
2019-05-21T06:31:24.217Z,99.90
2019-05-21T06:33:53.614Z,99.90
2019-05-21T06:36:23.307Z,99.90
2019-05-21T06:38:52.614Z,99.90
2019-05-21T06:41:22.172Z,99.90
2019-05-21T06:43:51.520Z,99.90
2019-05-21T06:46:21.112Z,99.90
2019-05-21T06:48:50.768Z,99.90
2019-05-21T06:51:20.090Z,99.90
2019-05-21T06:53:49.364Z,99.90
2019-05-21T06:56:19.252Z,99.90
2019-05-21T06:58:48.549Z,99.90
2019-05-21T07:01:17.868Z,99.90
2019-05-21T07:03:47.231Z,99.90
2019-05-21T07:06:16.577Z,99.90
2019-05-21T07:08:45.866Z,99.90
2019-05-21T07:11:15.191Z,99.90
2019-05-21T07:13:44.651Z,99.90
2019-05-21T07:16:13.967Z,99.90
2019-05-21T07:18:43.300Z,99.90
2019-05-21T07:21:12.874Z,99.90
2019-05-21T07:23:42.156Z,99.90
2019-05-21T07:26:12.620Z,99.90
2019-05-21T07:28:42.270Z,99.90
2019-05-21T07:31:11.572Z,99.90
2019-05-21T07:33:42.979Z,99.90
2019-05-21T07:36:12.655Z,99.90
2019-05-21T07:38:52.582Z,99.90
2019-05-21T07:41:13.235Z,99.90
2019-05-21T07:43:42.544Z,99.90
2019-05-21T07:46:12.585Z,99.90
2019-05-21T07:48:42.147Z,99.90
2019-05-21T07:51:11.460Z,99.90
2019-05-21T07:53:40.808Z,99.90
2019-05-21T07:56:10.367Z,99.90
2019-05-21T07:58:39.985Z,99.90
2019-05-21T08:01:09.255Z,99.90
2019-05-21T08:03:38.885Z,99.90
2019-05-21T08:06:08.281Z,99.90
2019-05-21T08:08:37.832Z,99.90
2019-05-21T08:11:07.155Z,99.90
2019-05-21T08:13:36.428Z,99.90
2019-05-21T08:16:05.766Z,99.70
2019-05-21T08:18:35.692Z,99.60
2019-05-21T08:21:05.043Z,99.20
2019-05-21T08:23:34.617Z,99.40
2019-05-21T08:26:04.062Z,99.20
2019-05-21T08:28:33.353Z,99.30
2019-05-21T08:31:02.754Z,99.20
2019-05-21T08:33:32.436Z,99.20
2019-05-21T08:36:02.135Z,99.10
2019-05-21T08:38:32.187Z,99.20
2019-05-21T08:41:02.909Z,99.70
2019-05-21T08:43:32.502Z,99.70
2019-05-21T08:46:01.826Z,99.90
2019-05-21T08:48:31.586Z,99.90
2019-05-21T08:51:01.236Z,99.90
2019-05-21T08:53:30.990Z,99.90
2019-05-21T08:56:00.624Z,99.90
2019-05-21T08:58:30.056Z,99.90
2019-05-21T09:00:59.352Z,99.80
2019-05-21T09:03:29.075Z,99.90
2019-05-21T09:05:58.407Z,99.90
2019-05-21T09:08:27.927Z,99.90
2019-05-21T09:10:57.293Z,99.90
2019-05-21T09:13:27.213Z,99.60
2019-05-21T09:15:56.646Z,99.20
2019-05-21T09:18:25.919Z,99.50
2019-05-21T09:20:55.236Z,99.10
2019-05-21T09:23:24.611Z,99.30
2019-05-21T09:25:53.959Z,98.70
2019-05-21T09:28:23.290Z,98.40
2019-05-21T09:30:52.839Z,98.20
2019-05-21T09:33:22.151Z,98.00
2019-05-21T09:35:51.730Z,98.10
2019-05-21T09:38:21.432Z,98.00
2019-05-21T09:40:50.716Z,98.00
2019-05-21T09:43:20.267Z,98.10
2019-05-21T09:45:49.656Z,98.10
2019-05-21T09:48:18.969Z,98.20
2019-05-21T09:50:48.545Z,98.20
2019-05-21T09:53:17.876Z,97.90
2019-05-21T09:55:47.500Z,97.90
2019-05-21T09:58:24.921Z,97.70
2019-05-21T10:01:16.151Z,97.90
2019-05-21T10:03:49.584Z,97.70
2019-05-21T10:06:18.899Z,97.50
2019-05-21T10:08:48.498Z,97.00
2019-05-21T10:11:17.755Z,97.20
2019-05-21T10:13:47.159Z,97.20
2019-05-21T10:16:16.547Z,97.10
2019-05-21T10:18:46.228Z,96.70
2019-05-21T10:21:16.039Z,96.90
2019-05-21T10:23:45.341Z,96.60
2019-05-21T10:26:14.735Z,96.60
2019-05-21T10:28:44.057Z,96.50
2019-05-21T10:31:13.680Z,96.50
2019-05-21T10:33:42.948Z,96.30
2019-05-21T10:36:12.647Z,96.00
2019-05-21T10:38:42.068Z,96.20
2019-05-21T10:41:11.462Z,96.50
2019-05-21T10:43:40.767Z,96.60
2019-05-21T10:46:10.461Z,96.60
2019-05-21T10:48:40.454Z,96.40
2019-05-21T10:51:09.894Z,96.30
2019-05-21T10:53:39.643Z,96.30
2019-05-21T10:56:08.920Z,96.50
2019-05-21T10:58:38.823Z,96.30
2019-05-21T11:01:17.692Z,96.40
2019-05-21T11:04:04.825Z,96.90
2019-05-21T11:06:34.298Z,96.90
2019-05-21T11:09:04.707Z,96.70
2019-05-21T11:11:34.275Z,96.90
2019-05-21T11:14:03.616Z,96.80
2019-05-21T11:16:32.908Z,97.00
2019-05-21T11:19:02.543Z,97.20
2019-05-21T11:21:32.143Z,97.50
2019-05-21T11:24:01.542Z,97.50
2019-05-21T11:26:31.264Z,97.50
2019-05-21T11:29:01.245Z,97.20
2019-05-21T11:31:30.695Z,97.30
2019-05-21T11:34:00.046Z,97.60
2019-05-21T11:36:29.757Z,97.70
2019-05-21T11:38:59.041Z,97.80
2019-05-21T11:41:28.412Z,97.90
2019-05-21T11:43:57.687Z,98.10
2019-05-21T11:46:28.356Z,98.20
2019-05-21T11:48:57.675Z,98.00
2019-05-21T11:51:26.961Z,98.10
2019-05-21T11:53:56.292Z,98.50
2019-05-21T11:56:25.607Z,98.00
2019-05-21T11:58:54.871Z,98.00
2019-05-21T12:01:24.163Z,98.10
2019-05-21T12:03:53.447Z,98.00
2019-05-21T12:06:22.714Z,98.20
2019-05-21T12:08:56.581Z,98.40
2019-05-21T12:11:23.351Z,98.20
2019-05-21T12:13:52.695Z,98.10
2019-05-21T12:16:21.969Z,97.90
2019-05-21T12:18:51.483Z,98.00
2019-05-21T12:21:20.816Z,97.80
2019-05-21T12:23:50.095Z,98.00
2019-05-21T12:26:19.481Z,97.80
2019-05-21T12:28:48.750Z,98.10
2019-05-21T12:31:18.334Z,98.00
2019-05-21T12:33:47.645Z,97.40
2019-05-21T12:36:17.197Z,98.10
2019-05-21T12:38:46.923Z,98.00
2019-05-21T12:41:16.348Z,97.80
2019-05-21T12:43:45.630Z,98.10
2019-05-21T12:46:15.026Z,98.20
2019-05-21T12:48:44.315Z,98.10
2019-05-21T12:51:13.680Z,98.10
2019-05-21T12:53:43.052Z,98.20
2019-05-21T12:56:13.863Z,98.20
2019-05-21T12:58:43.596Z,98.20
2019-05-21T13:01:14.436Z,98.30
2019-05-21T13:03:43.756Z,98.40
2019-05-21T13:06:13.042Z,98.50
2019-05-21T13:08:42.632Z,98.10
2019-05-21T13:11:12.191Z,98.30
2019-05-21T13:13:41.909Z,98.40
2019-05-21T13:16:11.214Z,98.30
2019-05-21T13:18:41.081Z,98.40
2019-05-21T13:21:10.373Z,98.30
2019-05-21T13:23:40.078Z,97.90
2019-05-21T13:26:09.662Z,98.10
2019-05-21T13:28:39.173Z,98.00
2019-05-21T13:31:09.196Z,98.00
2019-05-21T13:33:38.583Z,98.40
2019-05-21T13:36:07.921Z,98.40
2019-05-21T13:38:37.283Z,98.10
2019-05-21T13:41:06.999Z,98.10
2019-05-21T13:43:38.456Z,98.10
2019-05-21T13:46:08.039Z,98.10
2019-05-21T13:48:37.607Z,98.00
2019-05-21T13:51:07.275Z,97.70
2019-05-21T13:53:36.612Z,97.60
2019-05-21T13:56:06.331Z,97.30
2019-05-21T13:58:35.611Z,97.30
2019-05-21T14:01:06.003Z,97.30
2019-05-21T14:03:36.207Z,97.40
2019-05-21T14:06:06.023Z,97.40
2019-05-21T14:08:35.381Z,97.20
2019-05-21T14:11:05.360Z,97.30
2019-05-21T14:13:34.964Z,97.60
2019-05-21T14:16:04.357Z,97.50
2019-05-21T14:18:33.768Z,97.70
2019-05-21T14:21:03.186Z,97.60
2019-05-21T14:23:32.571Z,97.70
2019-05-21T14:26:01.873Z,97.60
2019-05-21T14:28:34.463Z,97.60
2019-05-21T14:31:02.518Z,97.80
2019-05-21T14:33:31.900Z,97.60
2019-05-21T14:36:01.281Z,97.70
2019-05-21T14:38:30.655Z,97.80
2019-05-21T14:41:00.459Z,97.90
2019-05-21T14:43:29.741Z,97.80
2019-05-21T14:45:59.299Z,97.80
2019-05-21T14:48:28.577Z,97.80
2019-05-21T14:50:57.859Z,97.60
2019-05-21T14:53:27.416Z,97.70
2019-05-21T14:55:56.691Z,98.00
2019-05-21T14:58:25.969Z,97.70
2019-05-21T15:00:55.526Z,97.80
2019-05-21T15:03:25.728Z,97.70
2019-05-21T15:05:55.430Z,97.80
2019-05-21T15:08:25.062Z,97.60
2019-05-21T15:10:54.963Z,97.80
2019-05-21T15:13:24.555Z,97.80
2019-05-21T15:15:53.918Z,98.10
2019-05-21T15:18:23.227Z,98.10
2019-05-21T15:20:57.883Z,98.10
2019-05-21T15:23:27.506Z,98.00
2019-05-21T15:25:56.829Z,98.20
2019-05-21T15:28:26.106Z,98.30
2019-05-21T15:30:55.488Z,98.20
2019-05-21T15:33:25.080Z,97.90
2019-05-21T15:35:54.369Z,97.80
2019-05-21T15:38:23.936Z,98.00
2019-05-21T15:41:09.638Z,98.10
2019-05-21T15:43:25.312Z,98.10
2019-05-21T15:45:54.593Z,98.10
2019-05-21T15:48:26.733Z,98.00
2019-05-21T15:50:55.799Z,97.70
2019-05-21T15:53:25.186Z,97.90
2019-05-21T15:55:54.488Z,97.90
2019-05-21T15:58:26.774Z,97.90
2019-05-21T16:00:55.116Z,98.00
2019-05-21T16:03:24.862Z,98.30
2019-05-21T16:05:54.130Z,98.00
2019-05-21T16:08:23.465Z,98.10
2019-05-21T16:10:52.770Z,98.00
2019-05-21T16:13:22.407Z,98.10
2019-05-21T16:15:51.769Z,97.80
2019-05-21T16:18:21.127Z,97.90
2019-05-21T16:20:51.181Z,98.00
2019-05-21T16:23:20.863Z,97.90
2019-05-21T16:25:50.397Z,98.00
2019-05-21T16:28:19.994Z,98.10
2019-05-21T16:30:49.283Z,98.10
2019-05-21T16:33:18.879Z,98.20
2019-05-21T16:35:48.167Z,98.20
2019-05-21T16:38:20.982Z,98.20
2019-05-21T16:40:50.261Z,97.90
2019-05-21T16:43:19.881Z,98.10
2019-05-21T16:45:49.243Z,97.70
2019-05-21T16:48:18.562Z,97.70
2019-05-21T16:50:48.302Z,98.00
2019-05-21T16:53:18.096Z,98.10
2019-05-21T16:55:47.768Z,98.00
2019-05-21T16:58:17.260Z,97.80
2019-05-21T17:00:46.619Z,98.10
2019-05-21T17:03:16.181Z,98.20
2019-05-21T17:05:45.585Z,98.30
2019-05-21T17:08:15.264Z,98.20
2019-05-21T17:10:44.622Z,98.00
2019-05-21T17:13:13.966Z,98.10
2019-05-21T17:15:43.279Z,98.00
2019-05-21T17:18:12.716Z,97.80
2019-05-21T17:20:42.343Z,97.90
2019-05-21T17:23:12.265Z,98.00
2019-05-21T17:25:41.673Z,98.00
2019-05-21T17:28:11.316Z,98.00
2019-05-21T17:30:40.894Z,98.20
2019-05-21T17:33:10.308Z,98.20
2019-05-21T17:35:39.868Z,98.10
2019-05-21T17:38:09.432Z,98.00
2019-05-21T17:40:38.744Z,98.10
2019-05-21T17:43:08.284Z,98.20
2019-05-21T17:45:37.718Z,98.40
2019-05-21T17:48:07.042Z,98.40
2019-05-21T17:50:36.326Z,98.40
2019-05-21T17:53:05.644Z,98.20
2019-05-21T17:55:35.150Z,98.20
2019-05-21T17:58:04.416Z,98.30
2019-05-21T18:00:46.487Z,98.30
2019-05-21T18:03:15.903Z,98.30
2019-05-21T18:05:45.994Z,98.50
2019-05-21T18:08:17.224Z,98.40
2019-05-21T18:10:46.966Z,98.60
2019-05-21T18:13:18.154Z,98.50
2019-05-21T18:15:47.717Z,98.50
2019-05-21T18:18:17.149Z,98.60
2019-05-21T18:20:46.525Z,98.40
2019-05-21T18:23:16.909Z,98.40
2019-05-21T18:25:49.339Z,98.60
2019-05-21T18:28:19.060Z,98.10
2019-05-21T18:30:48.779Z,98.20
2019-05-21T18:33:18.453Z,98.40
2019-05-21T18:35:48.351Z,98.20
2019-05-21T18:38:17.771Z,98.40
2019-05-21T18:40:47.068Z,98.40
2019-05-21T18:43:16.343Z,98.60
2019-05-21T18:45:45.892Z,98.60
2019-05-21T18:48:15.197Z,98.70
2019-05-21T18:50:45.108Z,98.60
2019-05-21T18:53:14.728Z,98.80
2019-05-21T18:55:44.028Z,98.60
2019-05-21T18:58:16.438Z,98.70
2019-05-21T19:00:44.583Z,98.60
2019-05-21T19:03:14.019Z,98.70
2019-05-21T19:05:43.340Z,98.60
2019-05-21T19:08:13.000Z,98.60
2019-05-21T19:10:42.293Z,98.40
2019-05-21T19:13:11.804Z,98.50
2019-05-21T19:15:41.376Z,98.50
2019-05-21T19:18:10.995Z,98.50
2019-05-21T19:20:41.551Z,98.40
2019-05-21T19:23:11.360Z,98.20
2019-05-21T19:25:41.141Z,98.40
2019-05-21T19:28:10.717Z,98.40
2019-05-21T19:30:40.500Z,98.70
2019-05-21T19:33:09.914Z,98.30
2019-05-21T19:35:39.456Z,98.30
2019-05-21T19:38:08.803Z,98.30
2019-05-21T19:40:38.440Z,98.20
2019-05-21T19:43:08.327Z,98.20
2019-05-21T19:45:37.695Z,98.10
2019-05-21T19:48:07.050Z,98.30
2019-05-21T19:50:36.761Z,98.20
2019-05-21T19:53:06.137Z,98.30
2019-05-21T19:55:37.093Z,98.30
2019-05-21T19:58:06.430Z,98.30
2019-05-21T20:00:39.511Z,98.50
2019-05-21T20:03:09.057Z,98.30
2019-05-21T20:05:38.923Z,98.40
2019-05-21T20:08:08.267Z,98.40
2019-05-21T20:10:37.724Z,98.30
2019-05-21T20:13:07.707Z,98.40
2019-05-21T20:15:38.575Z,98.50
2019-05-21T20:18:08.931Z,98.40
2019-05-21T20:20:42.057Z,98.30
2019-05-21T20:23:12.269Z,98.20
2019-05-21T20:25:55.278Z,98.20
2019-05-21T20:28:13.544Z,98.20
2019-05-21T20:30:44.828Z,98.10
2019-05-21T20:33:14.929Z,97.90
2019-05-21T20:35:45.691Z,97.70
2019-05-21T20:38:15.180Z,97.70
2019-05-21T20:40:45.228Z,97.80
2019-05-21T20:43:15.136Z,97.20
2019-05-21T20:45:46.786Z,97.60
2019-05-21T20:48:18.724Z,97.40
2019-05-21T20:50:49.016Z,97.70
2019-05-21T20:53:25.169Z,97.70
2019-05-21T20:55:54.960Z,97.50
2019-05-21T20:58:24.570Z,97.30
2019-05-21T21:01:00.762Z,97.20
2019-05-21T21:03:33.945Z,97.40
2019-05-21T21:06:04.120Z,97.20
2019-05-21T21:08:36.818Z,97.20
2019-05-21T21:11:09.195Z,97.50
2019-05-21T21:13:39.343Z,97.50
2019-05-21T21:16:08.718Z,97.30
2019-05-21T21:18:38.527Z,97.40
2019-05-21T21:21:10.569Z,97.50
2019-05-21T21:23:43.349Z,97.60
2019-05-21T21:26:32.872Z,97.60
2019-05-21T21:29:02.379Z,97.80
2019-05-21T21:31:32.019Z,97.60
2019-05-21T21:34:01.822Z,97.50
2019-05-21T21:36:31.813Z,97.30
2019-05-21T21:39:01.475Z,97.20
2019-05-21T21:41:31.052Z,97.10
2019-05-21T21:44:00.759Z,97.30
2019-05-21T21:46:30.098Z,97.30
2019-05-21T21:48:59.837Z,97.40
2019-05-21T21:51:29.337Z,97.60
2019-05-21T21:53:59.251Z,97.50
2019-05-21T21:56:28.819Z,97.40
2019-05-21T21:58:58.642Z,97.20
2019-05-21T22:01:39.252Z,97.30
2019-05-21T22:04:10.550Z,97.30
2019-05-21T22:06:41.930Z,97.20
2019-05-21T22:09:31.857Z,97.50
2019-05-21T22:12:02.669Z,97.40
2019-05-21T22:14:49.081Z,97.60
2019-05-21T22:17:05.586Z,97.70
2019-05-21T22:19:35.249Z,97.90
2019-05-21T22:22:05.236Z,97.80
2019-05-21T22:24:35.194Z,97.80
2019-05-21T22:27:04.779Z,97.80
2019-05-21T22:29:34.137Z,97.80
2019-05-21T22:32:03.734Z,97.90
2019-05-21T22:34:33.481Z,98.20
2019-05-21T22:37:02.840Z,98.50
2019-05-21T22:39:34.172Z,98.60
2019-05-21T22:42:03.973Z,98.50
2019-05-21T22:44:35.079Z,98.70
2019-05-21T22:47:05.404Z,98.80
2019-05-21T22:49:34.791Z,98.60
2019-05-21T22:52:04.307Z,98.40
2019-05-21T22:54:35.861Z,98.50
2019-05-21T22:57:05.344Z,98.60
2019-05-21T22:59:35.502Z,98.60
2019-05-21T23:02:06.853Z,98.60
2019-05-21T23:04:36.622Z,98.70
2019-05-21T23:07:06.607Z,98.60
2019-05-21T23:09:36.227Z,98.70
2019-05-21T23:12:07.136Z,98.70
2019-05-21T23:14:36.688Z,98.70
2019-05-21T23:17:08.804Z,98.50
2019-05-21T23:19:39.239Z,98.50
2019-05-21T23:22:09.866Z,98.40
2019-05-21T23:24:39.739Z,98.20
2019-05-21T23:27:11.107Z,98.20
2019-05-21T23:29:40.555Z,98.10
2019-05-21T23:32:10.789Z,97.90
2019-05-21T23:34:41.170Z,98.00
2019-05-21T23:37:15.800Z,97.80
2019-05-21T23:39:46.108Z,97.80
2019-05-21T23:42:28.647Z,97.90
2019-05-21T23:44:47.080Z,97.70
2019-05-21T23:47:18.117Z,97.70
2019-05-21T23:49:48.035Z,97.50
2019-05-21T23:52:17.354Z,97.70
2019-05-21T23:54:46.939Z,97.50
2019-05-21T23:57:21.097Z,97.30
2019-05-21T23:59:51.498Z,97.40
